createdAt,value
2023-05-14T00:01:10.123Z,99.90
2023-05-14T00:03:37.676Z,99.90
2023-05-14T00:06:04.608Z,99.90
2023-05-14T00:08:31.475Z,99.90
2023-05-14T00:10:58.949Z,99.90
2023-05-14T00:13:26.352Z,99.90
2023-05-14T00:15:53.352Z,99.90
2023-05-14T00:18:20.361Z,99.90
2023-05-14T00:20:47.176Z,99.90
2023-05-14T00:23:13.942Z,99.90
2023-05-14T00:25:40.780Z,99.90
2023-05-14T00:28:07.628Z,99.90
2023-05-14T00:30:34.997Z,99.90
2023-05-14T00:33:01.902Z,99.90
2023-05-14T00:35:29.138Z,99.90
2023-05-14T00:37:57.114Z,99.90
2023-05-14T00:40:27.659Z,99.90
2023-05-14T00:42:54.968Z,99.90
2023-05-14T00:45:21.939Z,99.90
2023-05-14T00:47:49.382Z,99.90
2023-05-14T00:50:16.637Z,99.90
2023-05-14T00:52:43.906Z,99.90
2023-05-14T00:55:12.914Z,99.90
2023-05-14T00:57:40.680Z,99.90
2023-05-14T01:00:07.963Z,99.90
2023-05-14T01:02:35.088Z,99.90
2023-05-14T01:05:02.327Z,99.90
2023-05-14T01:07:38.031Z,99.90
2023-05-14T01:10:37.481Z,99.90
2023-05-14T01:13:11.866Z,99.90
2023-05-14T01:15:39.737Z,99.90
2023-05-14T01:18:08.591Z,99.90
2023-05-14T01:20:35.966Z,99.90
2023-05-14T01:23:03.292Z,99.90
2023-05-14T01:25:30.891Z,99.90
2023-05-14T01:28:00.711Z,99.90
2023-05-14T01:30:31.116Z,99.90
2023-05-14T01:33:00.485Z,99.90
2023-05-14T01:35:28.456Z,99.90
2023-05-14T01:38:06.803Z,99.90
2023-05-14T01:40:36.698Z,99.90
2023-05-14T01:43:04.058Z,99.90
2023-05-14T01:45:31.197Z,99.90
2023-05-14T01:47:58.919Z,99.90
2023-05-14T01:50:25.927Z,99.90
2023-05-14T01:52:56.362Z,99.90
2023-05-14T01:55:26.127Z,99.90
2023-05-14T01:57:53.315Z,99.90
2023-05-14T02:00:20.926Z,99.90
2023-05-14T02:02:47.844Z,99.90
2023-05-14T02:05:14.707Z,99.90
2023-05-14T02:07:41.593Z,99.90
2023-05-14T02:10:09.362Z,99.90
2023-05-14T02:12:36.158Z,99.90
2023-05-14T02:15:03.882Z,99.90
2023-05-14T02:17:30.727Z,99.90
2023-05-14T02:19:57.544Z,99.90
2023-05-14T02:22:24.685Z,99.90
2023-05-14T02:24:51.606Z,99.90
2023-05-14T02:27:18.747Z,99.90
2023-05-14T02:29:45.523Z,99.90
2023-05-14T02:32:12.426Z,99.90
2023-05-14T02:34:39.428Z,99.90
2023-05-14T02:37:06.478Z,99.90
2023-05-14T02:39:33.310Z,99.90
2023-05-14T02:42:00.331Z,99.90
2023-05-14T02:44:27.105Z,99.90
2023-05-14T02:46:53.892Z,99.90
2023-05-14T02:49:20.956Z,99.90
2023-05-14T02:51:47.808Z,99.90
2023-05-14T02:54:16.433Z,99.90
2023-05-14T02:56:43.369Z,99.90
2023-05-14T02:59:10.486Z,99.90
2023-05-14T03:01:38.008Z,99.90
2023-05-14T03:04:05.613Z,99.90
2023-05-14T03:06:32.522Z,99.90
2023-05-14T03:08:59.422Z,99.90
2023-05-14T03:11:26.195Z,99.90
2023-05-14T03:13:52.959Z,99.90
2023-05-14T03:16:19.902Z,99.90
2023-05-14T03:18:46.762Z,99.90
2023-05-14T03:21:14.120Z,99.90
2023-05-14T03:23:40.904Z,99.90
2023-05-14T03:26:08.380Z,99.90
2023-05-14T03:28:35.183Z,99.90
2023-05-14T03:31:02.056Z,99.90
2023-05-14T03:33:31.110Z,99.90
2023-05-14T03:35:58.045Z,99.90
2023-05-14T03:38:24.953Z,99.90
2023-05-14T03:40:51.868Z,99.90
2023-05-14T03:43:18.731Z,99.90
2023-05-14T03:45:45.769Z,99.90
2023-05-14T03:48:12.924Z,99.90
2023-05-14T03:50:39.905Z,99.90
2023-05-14T03:53:06.786Z,99.90
2023-05-14T03:55:33.614Z,99.90
2023-05-14T03:58:00.556Z,99.90
2023-05-14T04:00:27.433Z,99.90
2023-05-14T04:02:54.518Z,99.90
2023-05-14T04:05:23.709Z,99.90
2023-05-14T04:07:52.520Z,99.90
2023-05-14T04:10:21.591Z,99.90
2023-05-14T04:12:48.773Z,99.90
2023-05-14T04:15:15.919Z,99.90
2023-05-14T04:17:43.101Z,99.90
2023-05-14T04:20:12.557Z,99.90
2023-05-14T04:22:39.548Z,99.90
2023-05-14T04:25:06.640Z,99.90
2023-05-14T04:27:34.154Z,99.90
2023-05-14T04:30:01.198Z,99.90
2023-05-14T04:32:28.025Z,99.90
2023-05-14T04:34:54.835Z,99.90
2023-05-14T04:37:21.622Z,99.90
2023-05-14T04:39:48.443Z,99.90
2023-05-14T04:42:15.305Z,99.90
2023-05-14T04:44:42.215Z,99.90
2023-05-14T04:47:09.000Z,99.90
2023-05-14T04:49:35.832Z,99.90
2023-05-14T04:52:02.644Z,99.90
2023-05-14T04:54:29.576Z,99.90
2023-05-14T04:56:56.517Z,99.90
2023-05-14T04:59:23.306Z,99.90
2023-05-14T05:01:50.167Z,99.90
2023-05-14T05:04:17.023Z,99.90
2023-05-14T05:06:43.816Z,99.90
2023-05-14T05:09:10.610Z,99.90
2023-05-14T05:11:37.908Z,99.90
2023-05-14T05:14:04.856Z,99.90
2023-05-14T05:16:31.798Z,99.90
2023-05-14T05:18:58.814Z,99.90
2023-05-14T05:21:25.754Z,99.90
2023-05-14T05:23:52.626Z,99.90
2023-05-14T05:26:19.533Z,99.90
2023-05-14T05:28:46.292Z,99.90
2023-05-14T05:31:13.173Z,99.90
2023-05-14T05:33:40.081Z,99.90
2023-05-14T05:36:06.980Z,99.90
2023-05-14T05:38:33.804Z,99.90
2023-05-14T05:41:00.658Z,99.90
2023-05-14T05:43:28.603Z,99.90
2023-05-14T05:45:55.537Z,99.90
2023-05-14T05:48:22.327Z,99.90
2023-05-14T05:50:49.333Z,99.90
2023-05-14T05:53:19.019Z,99.90
2023-05-14T05:55:45.857Z,99.90
2023-05-14T05:58:15.667Z,99.90
2023-05-14T06:00:42.544Z,99.90
2023-05-14T06:03:09.434Z,99.90
2023-05-14T06:05:36.414Z,99.90
2023-05-14T06:08:03.353Z,99.90
2023-05-14T06:10:30.214Z,99.90
2023-05-14T06:12:57.119Z,99.90
2023-05-14T06:15:23.962Z,99.90
2023-05-14T06:17:50.784Z,99.90
2023-05-14T06:20:17.700Z,99.90
2023-05-14T06:22:44.631Z,99.90
2023-05-14T06:25:11.592Z,99.90
2023-05-14T06:27:38.984Z,99.90
2023-05-14T06:30:06.937Z,99.90
2023-05-14T06:32:33.822Z,99.90
2023-05-14T06:35:01.609Z,99.90
2023-05-14T06:37:28.458Z,99.90
2023-05-14T06:39:57.642Z,99.90
2023-05-14T06:42:24.767Z,99.90
2023-05-14T06:44:51.614Z,99.90
2023-05-14T06:47:18.526Z,99.90
2023-05-14T06:49:45.453Z,99.90
2023-05-14T06:52:12.343Z,99.90
2023-05-14T06:54:39.445Z,99.90
2023-05-14T06:57:06.332Z,99.90
2023-05-14T06:59:33.344Z,99.90
2023-05-14T07:02:00.283Z,99.90
2023-05-14T07:04:27.108Z,99.90
2023-05-14T07:06:54.004Z,99.90
2023-05-14T07:09:20.851Z,99.90
2023-05-14T07:11:47.859Z,99.90
2023-05-14T07:14:14.723Z,99.90
2023-05-14T07:16:42.750Z,99.90
2023-05-14T07:19:09.627Z,99.90
2023-05-14T07:21:36.546Z,99.90
2023-05-14T07:24:03.420Z,99.90
2023-05-14T07:26:30.441Z,99.90
2023-05-14T07:28:57.375Z,99.90
2023-05-14T07:31:24.131Z,99.90
2023-05-14T07:33:51.049Z,99.90
2023-05-14T07:36:17.889Z,99.90
2023-05-14T07:38:44.731Z,99.90
2023-05-14T07:41:12.213Z,99.90
2023-05-14T07:43:40.485Z,99.90
2023-05-14T07:46:07.310Z,99.90
2023-05-14T07:48:34.173Z,99.90
2023-05-14T07:51:01.189Z,99.90
2023-05-14T07:53:27.978Z,99.90
2023-05-14T07:55:54.778Z,99.90
2023-05-14T07:58:21.571Z,99.90
2023-05-14T08:00:48.378Z,99.90
2023-05-14T08:03:15.570Z,99.90
2023-05-14T08:05:42.426Z,99.90
2023-05-14T08:08:09.289Z,99.90
2023-05-14T08:10:36.508Z,99.90
2023-05-14T08:13:05.513Z,99.90
2023-05-14T08:15:32.265Z,99.90
2023-05-14T08:18:03.454Z,99.90
2023-05-14T08:20:31.116Z,99.90
2023-05-14T08:22:58.153Z,99.90
2023-05-14T08:25:25.067Z,99.90
2023-05-14T08:27:53.671Z,99.90
2023-05-14T08:30:21.535Z,99.90
2023-05-14T08:32:48.479Z,99.90
2023-05-14T08:35:15.240Z,99.90
2023-05-14T08:37:41.987Z,99.90
2023-05-14T08:40:09.396Z,99.90
2023-05-14T08:42:37.745Z,99.90
2023-05-14T08:45:05.742Z,99.90
2023-05-14T08:47:33.582Z,99.90
2023-05-14T08:50:04.799Z,99.90
2023-05-14T08:52:32.175Z,99.90
2023-05-14T08:55:00.546Z,99.90
2023-05-14T08:57:28.535Z,99.90
2023-05-14T08:59:55.840Z,99.90
2023-05-14T09:02:28.226Z,99.90
2023-05-14T09:04:59.212Z,99.90
2023-05-14T09:07:26.005Z,99.90
2023-05-14T09:09:53.098Z,99.90
2023-05-14T09:12:20.141Z,99.90
2023-05-14T09:14:47.741Z,99.90
2023-05-14T09:17:14.588Z,99.90
2023-05-14T09:19:42.328Z,99.90
2023-05-14T09:22:10.263Z,99.90
2023-05-14T09:24:38.719Z,99.90
2023-05-14T09:27:06.436Z,99.90
2023-05-14T09:29:33.897Z,99.90
2023-05-14T09:32:05.667Z,99.90
2023-05-14T09:34:33.996Z,99.90
2023-05-14T09:37:02.520Z,99.90
2023-05-14T09:39:29.925Z,99.90
2023-05-14T09:41:56.847Z,99.90
2023-05-14T09:44:23.902Z,99.80
2023-05-14T09:46:51.270Z,99.90
2023-05-14T09:49:18.457Z,99.90
2023-05-14T09:51:45.906Z,99.60
2023-05-14T09:54:12.804Z,99.90
2023-05-14T09:56:40.267Z,98.90
2023-05-14T09:59:07.153Z,99.90
2023-05-14T10:01:34.531Z,99.90
2023-05-14T10:04:03.876Z,99.90
2023-05-14T10:06:32.780Z,98.50
2023-05-14T10:09:12.102Z,97.30
2023-05-14T10:11:41.315Z,98.00
2023-05-14T10:14:09.095Z,97.80
2023-05-14T10:16:41.223Z,98.30
2023-05-14T10:19:09.506Z,98.40
2023-05-14T10:21:38.132Z,99.80
2023-05-14T10:24:07.232Z,96.90
2023-05-14T10:26:37.817Z,96.80
2023-05-14T10:29:06.965Z,95.80
2023-05-14T10:31:56.164Z,97.30
2023-05-14T10:34:33.577Z,95.00
2023-05-14T10:37:04.652Z,94.80
2023-05-14T10:39:46.130Z,95.10
2023-05-14T10:42:14.039Z,97.40
2023-05-14T10:44:55.905Z,97.30
2023-05-14T10:47:22.716Z,97.50
2023-05-14T10:49:49.754Z,95.40
2023-05-14T10:52:18.610Z,96.90
2023-05-14T10:55:07.745Z,96.40
2023-05-14T10:57:36.031Z,97.20
2023-05-14T11:00:02.929Z,96.60
2023-05-14T11:02:37.117Z,94.00
2023-05-14T11:05:11.673Z,95.30
2023-05-14T11:07:39.283Z,96.60
2023-05-14T11:10:07.243Z,96.50
2023-05-14T11:12:34.714Z,96.80
2023-05-14T11:15:02.452Z,96.00
2023-05-14T11:17:29.943Z,96.10
2023-05-14T11:19:57.216Z,96.80
2023-05-14T11:22:24.199Z,94.90
2023-05-14T11:24:51.116Z,94.50
2023-05-14T11:27:18.816Z,95.60
2023-05-14T11:29:46.292Z,94.90
2023-05-14T11:32:13.896Z,95.70
2023-05-14T11:34:40.953Z,96.00
2023-05-14T11:37:08.251Z,94.20
2023-05-14T11:39:37.384Z,95.70
2023-05-14T11:42:05.097Z,96.50
2023-05-14T11:44:32.822Z,95.30
2023-05-14T11:47:01.267Z,95.80
2023-05-14T11:49:31.003Z,96.40
2023-05-14T11:51:58.531Z,96.10
2023-05-14T11:54:26.177Z,96.60
2023-05-14T11:56:54.200Z,96.60
2023-05-14T11:59:21.463Z,96.40
2023-05-14T12:01:50.607Z,96.10
2023-05-14T12:04:18.969Z,97.20
2023-05-14T12:06:46.721Z,96.80
2023-05-14T12:09:16.266Z,96.70
2023-05-14T12:11:43.468Z,96.30
2023-05-14T12:14:10.737Z,96.40
2023-05-14T12:16:39.652Z,96.00
2023-05-14T12:19:08.345Z,96.10
2023-05-14T12:21:35.298Z,93.60
2023-05-14T12:24:02.329Z,93.80
2023-05-14T12:26:32.319Z,94.50
2023-05-14T12:29:03.580Z,92.70
2023-05-14T12:31:31.348Z,92.20
2023-05-14T12:33:58.126Z,94.80
2023-05-14T12:36:25.098Z,94.50
2023-05-14T12:38:57.847Z,94.40
2023-05-14T12:41:24.664Z,94.40
2023-05-14T12:43:51.538Z,91.50
2023-05-14T12:46:18.663Z,93.30
2023-05-14T12:48:46.296Z,92.30
2023-05-14T12:51:13.274Z,87.50
2023-05-14T12:53:40.127Z,91.20
2023-05-14T12:56:07.049Z,91.40
2023-05-14T12:58:33.894Z,92.00
2023-05-14T13:01:00.761Z,92.50
2023-05-14T13:03:27.825Z,92.10
2023-05-14T13:05:54.764Z,92.40
2023-05-14T13:08:24.837Z,88.00
2023-05-14T13:10:52.192Z,88.60
2023-05-14T13:13:18.983Z,87.60
2023-05-14T13:15:46.831Z,90.50
2023-05-14T13:18:14.001Z,91.50
2023-05-14T13:20:43.117Z,90.30
2023-05-14T13:23:10.152Z,90.00
2023-05-14T13:25:37.105Z,83.50
2023-05-14T13:28:04.416Z,87.10
2023-05-14T13:30:32.313Z,84.10
2023-05-14T13:32:59.656Z,85.20
2023-05-14T13:35:26.871Z,83.00
2023-05-14T13:37:53.818Z,87.00
2023-05-14T13:40:20.975Z,86.30
2023-05-14T13:42:47.790Z,84.20
2023-05-14T13:45:14.720Z,83.60
2023-05-14T13:47:41.649Z,85.60
2023-05-14T13:50:08.747Z,85.80
2023-05-14T13:52:35.811Z,86.10
2023-05-14T13:55:02.573Z,86.90
2023-05-14T13:57:29.557Z,88.30
2023-05-14T13:59:56.622Z,83.80
2023-05-14T14:02:23.612Z,87.00
2023-05-14T14:04:52.978Z,83.60
2023-05-14T14:07:21.169Z,85.90
2023-05-14T14:09:48.055Z,86.80
2023-05-14T14:12:15.514Z,83.10
2023-05-14T14:14:42.313Z,77.20
2023-05-14T14:17:09.445Z,81.70
2023-05-14T14:19:36.670Z,83.00
2023-05-14T14:22:03.827Z,83.80
2023-05-14T14:24:30.735Z,79.90
2023-05-14T14:26:58.107Z,79.40
2023-05-14T14:29:24.938Z,81.40
2023-05-14T14:31:51.903Z,83.50
2023-05-14T14:34:18.846Z,84.40
2023-05-14T14:36:46.688Z,85.20
2023-05-14T14:39:13.477Z,83.30
2023-05-14T14:41:40.603Z,82.50
2023-05-14T14:44:07.330Z,81.40
2023-05-14T14:46:35.333Z,78.30
2023-05-14T14:49:02.209Z,80.00
2023-05-14T14:51:30.212Z,82.00
2023-05-14T14:53:57.192Z,80.60
2023-05-14T14:56:24.041Z,82.70
2023-05-14T14:58:50.858Z,83.30
2023-05-14T15:01:17.717Z,82.90
2023-05-14T15:03:45.690Z,80.80
2023-05-14T15:06:13.673Z,80.00
2023-05-14T15:08:40.836Z,76.00
2023-05-14T15:11:08.038Z,74.40
2023-05-14T15:13:34.910Z,72.20
2023-05-14T15:16:02.121Z,77.20
2023-05-14T15:18:28.967Z,76.00
2023-05-14T15:20:55.961Z,75.60
2023-05-14T15:23:22.722Z,72.30
2023-05-14T15:25:49.974Z,73.20
2023-05-14T15:28:16.970Z,72.80
2023-05-14T15:30:44.056Z,75.60
2023-05-14T15:33:10.815Z,73.50
2023-05-14T15:35:37.753Z,72.40
2023-05-14T15:38:04.532Z,74.30
2023-05-14T15:40:31.435Z,75.90
2023-05-14T15:42:58.214Z,73.90
2023-05-14T15:45:25.040Z,75.20
2023-05-14T15:47:51.958Z,78.10
2023-05-14T15:50:19.525Z,78.30
2023-05-14T15:52:46.592Z,76.70
2023-05-14T15:55:13.322Z,76.50
2023-05-14T15:57:40.269Z,73.70
2023-05-14T16:00:11.025Z,72.30
2023-05-14T16:02:41.282Z,75.80
2023-05-14T16:05:08.579Z,76.80
2023-05-14T16:07:35.832Z,78.60
2023-05-14T16:10:02.634Z,77.20
2023-05-14T16:12:29.408Z,76.00
2023-05-14T16:14:57.666Z,74.90
2023-05-14T16:17:29.846Z,74.30
2023-05-14T16:19:56.754Z,75.90
2023-05-14T16:22:24.707Z,75.90
2023-05-14T16:24:51.478Z,77.80
2023-05-14T16:27:21.196Z,78.50
2023-05-14T16:29:48.076Z,76.90
2023-05-14T16:32:14.895Z,78.20
2023-05-14T16:34:41.854Z,79.30
2023-05-14T16:37:09.287Z,79.80
2023-05-14T16:39:37.707Z,78.60
2023-05-14T16:42:04.666Z,78.90
2023-05-14T16:44:31.535Z,79.20
2023-05-14T16:46:58.343Z,81.10
2023-05-14T16:49:25.417Z,78.80
2023-05-14T16:51:52.156Z,80.70
2023-05-14T16:54:19.044Z,81.90
2023-05-14T16:56:48.136Z,80.70
2023-05-14T16:59:16.022Z,79.80
2023-05-14T17:01:43.372Z,80.40
2023-05-14T17:04:10.501Z,80.20
2023-05-14T17:06:37.306Z,81.60
2023-05-14T17:09:05.200Z,82.90
2023-05-14T17:11:32.553Z,83.80
2023-05-14T17:13:59.327Z,80.70
2023-05-14T17:16:27.109Z,79.50
2023-05-14T17:18:54.071Z,81.50
2023-05-14T17:21:20.893Z,81.50
2023-05-14T17:23:47.876Z,80.00
2023-05-14T17:26:14.697Z,82.20
2023-05-14T17:28:41.469Z,79.80
2023-05-14T17:31:08.293Z,80.70
2023-05-14T17:33:35.430Z,81.10
2023-05-14T17:36:02.340Z,81.90
2023-05-14T17:38:29.082Z,81.80
2023-05-14T17:40:56.081Z,81.00
2023-05-14T17:43:22.978Z,82.00
2023-05-14T17:45:54.269Z,82.90
2023-05-14T17:48:22.499Z,83.30
2023-05-14T17:50:49.751Z,84.10
2023-05-14T17:53:16.641Z,83.60
2023-05-14T17:55:43.791Z,84.80
2023-05-14T17:58:11.592Z,85.30
2023-05-14T18:00:38.531Z,85.00
2023-05-14T18:03:05.651Z,85.80
2023-05-14T18:05:32.537Z,84.90
2023-05-14T18:08:00.101Z,85.60
2023-05-14T18:10:29.347Z,85.60
2023-05-14T18:12:56.793Z,86.70
2023-05-14T18:15:25.566Z,86.40
2023-05-14T18:17:53.118Z,86.80
2023-05-14T18:20:20.173Z,88.30
2023-05-14T18:22:47.105Z,88.50
2023-05-14T18:25:14.060Z,89.00
2023-05-14T18:27:44.904Z,88.10
2023-05-14T18:30:13.682Z,88.60
2023-05-14T18:32:41.470Z,89.50
2023-05-14T18:35:08.585Z,88.60
2023-05-14T18:37:35.652Z,90.40
2023-05-14T18:40:02.842Z,88.70
2023-05-14T18:42:30.102Z,90.50
2023-05-14T18:44:57.192Z,90.80
2023-05-14T18:47:24.388Z,91.10
2023-05-14T18:49:55.059Z,91.30
2023-05-14T18:52:22.901Z,91.40
2023-05-14T18:54:50.630Z,91.00
2023-05-14T18:57:17.430Z,91.10
2023-05-14T18:59:44.246Z,91.40
2023-05-14T19:02:11.087Z,91.50
2023-05-14T19:04:50.764Z,91.80
2023-05-14T19:07:19.200Z,92.10
2023-05-14T19:09:46.349Z,92.30
2023-05-14T19:12:13.713Z,92.10
2023-05-14T19:14:40.633Z,91.40
2023-05-14T19:17:08.752Z,91.40
2023-05-14T19:19:35.556Z,91.70
2023-05-14T19:22:02.472Z,93.00
2023-05-14T19:24:29.284Z,92.70
2023-05-14T19:26:56.140Z,93.30
2023-05-14T19:29:23.221Z,93.60
2023-05-14T19:31:51.144Z,93.60
2023-05-14T19:34:18.201Z,93.80
2023-05-14T19:36:46.284Z,93.90
2023-05-14T19:39:13.080Z,93.80
2023-05-14T19:41:42.267Z,93.50
2023-05-14T19:44:11.352Z,93.30
2023-05-14T19:46:43.933Z,94.00
2023-05-14T19:49:10.821Z,94.70
2023-05-14T19:51:40.943Z,94.70
2023-05-14T19:54:08.284Z,94.60
2023-05-14T19:56:40.914Z,95.80
2023-05-14T19:59:07.729Z,95.50
2023-05-14T20:01:35.826Z,95.50
2023-05-14T20:04:06.168Z,95.90
2023-05-14T20:06:34.302Z,96.30
2023-05-14T20:09:02.496Z,96.20
2023-05-14T20:11:33.285Z,96.00
2023-05-14T20:14:04.461Z,96.70
2023-05-14T20:16:32.053Z,96.80
2023-05-14T20:18:58.899Z,96.70
2023-05-14T20:21:28.282Z,96.60
2023-05-14T20:23:55.249Z,97.10
2023-05-14T20:26:24.981Z,96.90
2023-05-14T20:28:55.041Z,96.80
2023-05-14T20:31:25.613Z,97.20
2023-05-14T20:33:56.160Z,97.10
2023-05-14T20:36:26.395Z,97.50
2023-05-14T20:38:56.090Z,97.40
2023-05-14T20:41:26.392Z,98.30
2023-05-14T20:43:56.825Z,98.70
2023-05-14T20:46:23.845Z,98.90
2023-05-14T20:48:54.215Z,99.20
2023-05-14T20:51:22.426Z,99.30
2023-05-14T20:53:52.975Z,99.60
2023-05-14T20:56:22.549Z,99.50
2023-05-14T20:58:51.648Z,99.90
2023-05-14T21:01:21.821Z,99.90
2023-05-14T21:03:51.144Z,99.90
2023-05-14T21:06:17.999Z,99.90
2023-05-14T21:08:46.340Z,99.90
2023-05-14T21:11:14.166Z,99.90
2023-05-14T21:13:42.491Z,99.90
2023-05-14T21:16:12.734Z,99.90
2023-05-14T21:18:42.511Z,99.90
2023-05-14T21:21:13.732Z,99.90
2023-05-14T21:23:40.575Z,99.90
2023-05-14T21:26:07.851Z,99.90
2023-05-14T21:28:35.130Z,99.90
2023-05-14T21:31:03.234Z,99.90
2023-05-14T21:33:32.490Z,99.90
2023-05-14T21:35:59.288Z,99.90
2023-05-14T21:38:28.915Z,99.90
2023-05-14T21:40:55.750Z,99.90
2023-05-14T21:43:27.091Z,99.90
2023-05-14T21:45:54.355Z,99.90
2023-05-14T21:48:28.619Z,99.90
2023-05-14T21:50:55.881Z,99.90
2023-05-14T21:53:26.070Z,99.90
2023-05-14T21:55:53.756Z,99.90
2023-05-14T21:58:21.162Z,99.90
2023-05-14T22:00:47.904Z,99.90
2023-05-14T22:03:18.208Z,99.90
2023-05-14T22:05:45.303Z,99.90
2023-05-14T22:08:14.395Z,99.90
2023-05-14T22:10:41.573Z,99.90
2023-05-14T22:13:08.571Z,99.90
2023-05-14T22:15:37.589Z,99.90
2023-05-14T22:18:07.104Z,99.90
2023-05-14T22:20:36.898Z,99.90
2023-05-14T22:23:05.307Z,99.90
2023-05-14T22:25:32.059Z,99.90
2023-05-14T22:27:58.901Z,99.90
2023-05-14T22:30:25.882Z,99.90
2023-05-14T22:32:55.906Z,99.90
2023-05-14T22:35:26.426Z,99.90
2023-05-14T22:37:53.407Z,99.90
2023-05-14T22:40:22.876Z,99.90
2023-05-14T22:42:49.836Z,99.90
2023-05-14T22:45:25.434Z,99.90
2023-05-14T22:47:55.877Z,99.90
2023-05-14T22:50:25.640Z,99.90
2023-05-14T22:52:54.184Z,99.90
2023-05-14T22:55:24.116Z,99.90
2023-05-14T22:57:53.471Z,99.90
2023-05-14T23:00:22.700Z,99.90
2023-05-14T23:02:49.718Z,99.90
2023-05-14T23:05:16.623Z,99.90
2023-05-14T23:07:44.205Z,99.90
2023-05-14T23:10:16.533Z,99.90
2023-05-14T23:12:43.335Z,99.90
2023-05-14T23:15:10.324Z,99.90
2023-05-14T23:17:37.806Z,99.90
2023-05-14T23:20:10.538Z,99.90
2023-05-14T23:22:37.405Z,99.90
2023-05-14T23:25:04.350Z,99.90
2023-05-14T23:27:31.388Z,99.90
2023-05-14T23:29:58.231Z,99.90
2023-05-14T23:32:25.270Z,99.90
2023-05-14T23:34:52.214Z,99.90
2023-05-14T23:37:19.020Z,99.90
2023-05-14T23:39:46.059Z,99.90
2023-05-14T23:42:12.961Z,99.90
2023-05-14T23:44:40.092Z,99.90
2023-05-14T23:47:08.735Z,99.90
2023-05-14T23:49:35.805Z,99.90
2023-05-14T23:52:02.691Z,99.90
2023-05-14T23:54:29.532Z,99.90
2023-05-14T23:56:56.393Z,99.90
2023-05-14T23:59:23.183Z,99.90
